Terminal Aerodrome Forecast
Issued by NWS

Home | Current Version | Previous Version | Text Only | Print | Product List | Glossary On
Versions: 1 2 3 4 5 6 7 8 9 10 11 12 13
000
FTUS45 KRIW 111700
TAFCPR
TAF
KCPR 111730Z 1118/1218 VRB06KT P6SM VCSH SCT060 BKN100
     FM111900 VRB06KT P6SM VCTS SCT060CB BKN100
      TEMPO 1120/1124 VRB10G20KT 2SM +TSRA BKN030CB OVC080
     FM120400 09007KT P6SM VCSH SCT070 BKN150
     FM120800 VRB05KT P6SM SCT100
     FM121700 03010KT P6SM VCSH FEW030 BKN090=

USA.gov is the U.S. government's official web portal to all federal, state and local government web resources and services.